createdAt,value
2019-04-03T00:02:15.530Z,10.20
2019-04-03T00:04:53.804Z,10.20
2019-04-03T00:07:28.862Z,10.30
2019-04-03T00:10:08.342Z,10.20
2019-04-03T00:12:43.522Z,10.30
2019-04-03T00:15:18.695Z,10.30
2019-04-03T00:17:55.827Z,10.40
2019-04-03T00:20:40.061Z,10.40
2019-04-03T00:23:15.218Z,10.40
2019-04-03T00:25:51.991Z,10.40
2019-04-03T00:28:27.078Z,10.40
2019-04-03T00:31:02.159Z,10.40
2019-04-03T00:33:37.500Z,10.40
2019-04-03T00:36:12.627Z,10.40
2019-04-03T00:38:47.939Z,10.40
2019-04-03T00:41:24.782Z,10.40
2019-04-03T00:43:59.767Z,10.40
2019-04-03T00:46:35.246Z,10.40
2019-04-03T00:49:10.456Z,10.40
2019-04-03T00:51:45.776Z,10.40
2019-04-03T00:54:20.880Z,10.30
2019-04-03T00:56:56.500Z,10.30
2019-04-03T00:59:32.185Z,10.30
2019-04-03T01:02:08.633Z,10.20
2019-04-03T01:04:44.293Z,10.20
2019-04-03T01:07:22.958Z,10.20
2019-04-03T01:09:59.483Z,10.20
2019-04-03T01:12:35.124Z,10.10
2019-04-03T01:15:10.539Z,10.10
2019-04-03T01:17:45.969Z,10.10
2019-04-03T01:20:21.231Z,10.00
2019-04-03T01:22:57.065Z,10.10
2019-04-03T01:25:32.203Z,10.00
2019-04-03T01:28:07.711Z,10.00
2019-04-03T01:30:44.239Z,9.90
2019-04-03T01:33:20.188Z,9.90
2019-04-03T01:35:55.667Z,9.90
2019-04-03T01:38:31.102Z,9.80
2019-04-03T01:41:06.167Z,9.80
2019-04-03T01:43:41.220Z,9.80
2019-04-03T01:46:17.223Z,9.70
2019-04-03T01:48:52.393Z,9.70
2019-04-03T01:51:29.919Z,9.70
2019-04-03T01:54:06.525Z,9.60
2019-04-03T01:56:41.546Z,9.50
2019-04-03T01:59:17.843Z,9.40
2019-04-03T02:01:53.180Z,9.40
2019-04-03T02:04:28.771Z,9.30
2019-04-03T02:07:03.823Z,9.30
2019-04-03T02:09:39.217Z,9.20
2019-04-03T02:12:14.303Z,9.20
2019-04-03T02:14:50.952Z,9.20
2019-04-03T02:17:26.247Z,9.10
2019-04-03T02:20:01.617Z,9.10
2019-04-03T02:22:36.955Z,9.00
2019-04-03T02:25:12.039Z,9.00
2019-04-03T02:27:47.370Z,9.00
2019-04-03T02:30:23.715Z,9.00
2019-04-03T02:32:58.962Z,9.00
2019-04-03T02:35:34.075Z,9.10
2019-04-03T02:38:09.146Z,9.10
2019-04-03T02:40:44.175Z,9.10
2019-04-03T02:43:19.834Z,9.10
2019-04-03T02:45:56.330Z,9.10
2019-04-03T02:48:32.948Z,9.10
2019-04-03T02:51:08.700Z,9.10
2019-04-03T02:53:44.930Z,9.00
2019-04-03T02:56:20.067Z,9.00
2019-04-03T02:58:55.689Z,9.10
2019-04-03T03:01:30.988Z,9.10
2019-04-03T03:04:06.263Z,9.10
2019-04-03T03:06:41.755Z,9.10
2019-04-03T03:09:17.366Z,9.10
2019-04-03T03:11:55.483Z,9.10
2019-04-03T03:14:30.740Z,9.20
2019-04-03T03:17:06.493Z,9.10
2019-04-03T03:19:42.571Z,9.10
2019-04-03T03:22:18.950Z,9.00
2019-04-03T03:24:55.521Z,9.00
2019-04-03T03:27:32.044Z,9.00
2019-04-03T03:30:34.723Z,8.90
2019-04-03T03:32:48.685Z,8.90
2019-04-03T03:35:30.632Z,8.90
2019-04-03T03:38:01.140Z,8.80
2019-04-03T03:40:37.407Z,8.80
2019-04-03T03:43:13.624Z,8.80
2019-04-03T03:45:52.513Z,8.70
2019-04-03T03:48:27.747Z,8.70
2019-04-03T03:51:04.727Z,8.70
2019-04-03T03:53:44.568Z,8.60
2019-04-03T03:56:21.534Z,8.60
2019-04-03T03:58:57.106Z,8.50
2019-04-03T04:01:33.332Z,8.50
2019-04-03T04:06:43.769Z,8.50
2019-04-03T04:09:20.085Z,8.50
2019-04-03T04:11:55.526Z,8.50
2019-04-03T04:17:09.862Z,8.50
2019-04-03T04:19:46.394Z,8.50
2019-04-03T04:22:26.128Z,8.50
2019-04-03T04:25:02.479Z,8.50
2019-04-03T04:30:19.633Z,8.60
2019-04-03T04:32:55.824Z,8.60
2019-04-03T04:35:31.202Z,8.70
2019-04-03T04:38:06.757Z,8.60
2019-04-03T04:40:41.795Z,8.60
2019-04-03T04:43:17.148Z,8.60
2019-04-03T04:45:52.185Z,8.60
2019-04-03T04:48:27.224Z,8.60
2019-04-03T04:51:02.256Z,8.60
2019-04-03T04:53:38.063Z,8.70
2019-04-03T04:56:13.549Z,8.70
2019-04-03T04:58:48.634Z,8.60
2019-04-03T05:01:24.248Z,8.60
2019-04-03T05:03:59.409Z,8.50
2019-04-03T05:06:35.450Z,8.50
2019-04-03T05:09:10.540Z,8.50
2019-04-03T05:11:46.480Z,8.50
2019-04-03T05:16:59.351Z,8.50
2019-04-03T05:19:36.629Z,8.50
2019-04-03T05:22:11.744Z,8.50
2019-04-03T05:24:47.330Z,8.60
2019-04-03T05:27:23.593Z,8.60
2019-04-03T05:29:58.686Z,8.60
2019-04-03T05:32:34.150Z,8.60
2019-04-03T05:35:09.548Z,8.60
2019-04-03T05:37:45.089Z,8.70
2019-04-03T05:40:20.404Z,8.70
2019-04-03T05:42:57.798Z,8.70
2019-04-03T05:45:36.080Z,8.80
2019-04-03T05:48:13.415Z,8.80
2019-04-03T05:50:49.783Z,8.80
2019-04-03T05:53:25.634Z,8.90
2019-04-03T05:56:01.070Z,8.90
2019-04-03T05:58:36.090Z,8.90
2019-04-03T06:01:12.288Z,8.90
2019-04-03T06:03:48.294Z,8.90
2019-04-03T06:08:58.227Z,9.00
2019-04-03T06:11:33.331Z,9.10
2019-04-03T06:14:09.031Z,9.20
2019-04-03T06:16:45.127Z,9.20
2019-04-03T06:19:20.447Z,9.30
2019-04-03T06:21:56.895Z,9.40
2019-04-03T06:24:32.005Z,9.40
2019-04-03T06:27:09.175Z,9.40
2019-04-03T06:29:43.814Z,9.50
2019-04-03T06:32:18.879Z,9.70
2019-04-03T06:34:54.270Z,9.80
2019-04-03T06:40:07.831Z,10.00
2019-04-03T06:42:44.920Z,10.10
2019-04-03T06:45:20.076Z,10.30
2019-04-03T06:47:55.176Z,10.40
2019-04-03T06:50:30.270Z,10.60
2019-04-03T06:53:05.574Z,11.00
2019-04-03T06:55:40.625Z,11.70
2019-04-03T06:58:16.589Z,12.30
2019-04-03T07:00:54.354Z,13.00
2019-04-03T07:03:29.393Z,13.40
2019-04-03T07:06:05.755Z,13.60
2019-04-03T07:11:23.808Z,13.90
2019-04-03T07:16:29.862Z,14.20
2019-04-03T07:19:07.469Z,14.30
2019-04-03T07:21:43.685Z,14.60
2019-04-03T07:24:18.740Z,14.90
2019-04-03T07:26:53.917Z,15.30
2019-04-03T07:29:30.983Z,15.60
2019-04-03T07:32:08.397Z,16.10
2019-04-03T07:34:44.483Z,16.40
2019-04-03T07:37:21.480Z,16.90
2019-04-03T07:39:58.951Z,17.30
2019-04-03T07:42:35.861Z,18.00
2019-04-03T07:45:12.373Z,18.40
2019-04-03T07:47:47.952Z,18.70
2019-04-03T07:50:23.386Z,18.70
2019-04-03T07:52:58.674Z,18.30
2019-04-03T07:55:37.069Z,18.30
2019-04-03T07:58:14.700Z,18.60
2019-04-03T08:00:50.923Z,19.20
2019-04-03T08:03:26.014Z,19.70
2019-04-03T08:06:03.535Z,20.10
2019-04-03T08:08:41.710Z,20.50
2019-04-03T08:11:17.266Z,20.60
2019-04-03T08:13:56.198Z,20.80
2019-04-03T08:16:31.541Z,21.30
2019-04-03T08:19:08.361Z,21.30
2019-04-03T08:21:44.352Z,20.90
2019-04-03T08:24:21.558Z,20.80
2019-04-03T08:26:56.787Z,21.00
2019-04-03T08:29:34.723Z,21.50
2019-04-03T08:32:15.359Z,21.90
2019-04-03T08:34:50.018Z,22.10
2019-04-03T08:37:30.780Z,22.40
2019-04-03T08:40:06.356Z,22.70
2019-04-03T08:42:43.724Z,23.00
2019-04-03T08:45:21.652Z,23.00
2019-04-03T08:47:56.506Z,22.90
2019-04-03T08:50:31.764Z,22.70
2019-04-03T08:53:08.342Z,22.80
2019-04-03T08:55:44.004Z,22.50
2019-04-03T08:58:23.619Z,22.90
2019-04-03T09:01:04.827Z,22.90
2019-04-03T09:03:39.913Z,23.20
2019-04-03T09:06:15.864Z,23.10
2019-04-03T09:08:57.838Z,23.10
2019-04-03T09:11:36.281Z,23.00
2019-04-03T09:14:19.235Z,22.40
2019-04-03T09:16:58.081Z,22.40
2019-04-03T09:19:43.294Z,22.80
2019-04-03T09:22:21.605Z,23.30
2019-04-03T09:24:59.914Z,23.50
2019-04-03T09:27:34.761Z,24.30
2019-04-03T09:30:13.776Z,24.90
2019-04-03T09:32:50.228Z,24.90
2019-04-03T09:35:33.215Z,24.60
2019-04-03T09:38:14.727Z,24.20
2019-04-03T09:43:48.985Z,23.90
2019-04-03T09:46:25.730Z,24.60
2019-04-03T09:49:00.876Z,25.50
2019-04-03T09:51:37.057Z,26.00
2019-04-03T09:54:17.454Z,26.70
2019-04-03T09:57:04.112Z,27.60
2019-04-03T09:59:37.743Z,28.10
2019-04-03T10:02:14.039Z,28.60
2019-04-03T10:05:03.119Z,28.90
2019-04-03T10:07:57.542Z,29.00
2019-04-03T10:10:37.168Z,29.00
2019-04-03T10:13:14.493Z,29.20
2019-04-03T10:15:55.425Z,29.50
2019-04-03T10:21:47.502Z,30.40
2019-04-03T10:24:30.427Z,30.60
2019-04-03T10:27:06.015Z,30.60
2019-04-03T10:29:42.265Z,30.40
2019-04-03T10:32:18.352Z,30.40
2019-04-03T10:34:57.360Z,30.70
2019-04-03T10:40:46.975Z,30.50
2019-04-03T10:44:00.374Z,30.90
2019-04-03T10:49:50.555Z,29.70
2019-04-03T10:52:51.635Z,29.90
2019-04-03T10:58:22.536Z,28.80
2019-04-03T11:00:59.939Z,27.80
2019-04-03T11:03:36.560Z,27.50
2019-04-03T11:06:19.135Z,27.20
2019-04-03T11:08:55.365Z,26.90
2019-04-03T11:11:39.229Z,26.70
2019-04-03T11:14:25.067Z,27.20
2019-04-03T11:17:03.836Z,27.40
2019-04-03T11:19:39.977Z,27.30
2019-04-03T11:25:22.649Z,27.90
2019-04-03T11:28:00.945Z,28.40
2019-04-03T11:30:37.908Z,28.30
2019-04-03T11:33:34.699Z,28.00
2019-04-03T11:39:16.870Z,28.30
2019-04-03T11:41:55.550Z,28.30
2019-04-03T11:44:36.181Z,28.70
2019-04-03T11:47:13.083Z,29.00
2019-04-03T11:49:59.565Z,29.30
2019-04-03T11:55:36.732Z,29.30
2019-04-03T11:58:13.563Z,29.10
2019-04-03T12:00:56.521Z,29.20
2019-04-03T12:04:04.165Z,29.60
2019-04-03T12:06:52.277Z,29.70
2019-04-03T12:09:37.044Z,30.30
2019-04-03T12:15:30.670Z,30.70
2019-04-03T12:18:06.434Z,31.10
2019-04-03T12:20:49.249Z,31.30
2019-04-03T12:23:29.133Z,31.20
2019-04-03T12:26:09.018Z,31.40
2019-04-03T12:28:48.318Z,31.90
2019-04-03T12:37:57.036Z,31.00
2019-04-03T12:40:38.960Z,30.00
2019-04-03T12:43:21.048Z,28.80
2019-04-03T12:45:58.201Z,28.00
2019-04-03T12:48:39.092Z,27.40
2019-04-03T12:54:23.309Z,25.90
2019-04-03T12:57:06.778Z,25.10
2019-04-03T12:59:48.825Z,24.50
2019-04-03T13:02:32.151Z,23.90
2019-04-03T13:05:09.287Z,23.40
2019-04-03T13:07:46.889Z,23.00
2019-04-03T13:10:39.164Z,22.90
2019-04-03T13:13:07.379Z,23.00
2019-04-03T13:15:48.154Z,23.50
2019-04-03T13:18:32.143Z,24.10
2019-04-03T13:21:14.256Z,24.10
2019-04-03T13:23:51.838Z,24.20
2019-04-03T13:26:31.102Z,24.30
2019-04-03T13:29:09.785Z,24.60
2019-04-03T13:31:47.678Z,24.10
2019-04-03T13:34:24.369Z,23.80
2019-04-03T13:37:01.242Z,23.40
2019-04-03T13:39:38.726Z,23.00
2019-04-03T13:42:15.414Z,22.60
2019-04-03T13:44:52.945Z,22.40
2019-04-03T13:47:30.052Z,22.10
2019-04-03T13:50:13.847Z,22.10
2019-04-03T13:52:50.159Z,22.00
2019-04-03T13:55:28.519Z,22.00
2019-04-03T13:58:08.080Z,21.90
2019-04-03T14:00:52.102Z,21.80
2019-04-03T14:03:19.951Z,21.70
2019-04-03T14:05:56.012Z,21.50
2019-04-03T14:08:32.037Z,21.40
2019-04-03T14:11:16.691Z,21.30
2019-04-03T14:13:49.707Z,21.40
2019-04-03T14:16:27.375Z,21.70
2019-04-03T14:19:11.607Z,22.10
2019-04-03T14:21:47.781Z,22.30
2019-04-03T14:24:35.908Z,22.70
2019-04-03T14:27:00.010Z,22.80
2019-04-03T14:29:39.682Z,22.80
2019-04-03T14:32:16.620Z,22.80
2019-04-03T14:35:05.642Z,22.60
2019-04-03T14:37:33.023Z,22.60
2019-04-03T14:40:18.944Z,22.70
2019-04-03T14:42:58.180Z,22.90
2019-04-03T14:45:32.253Z,23.00
2019-04-03T14:48:10.930Z,23.10
2019-04-03T14:50:47.501Z,23.00
2019-04-03T14:53:28.457Z,22.60
2019-04-03T14:56:07.277Z,22.30
2019-04-03T15:01:50.818Z,22.80
2019-04-03T15:04:25.484Z,23.60
2019-04-03T15:07:07.777Z,24.00
2019-04-03T15:09:44.636Z,24.20
2019-04-03T15:12:27.070Z,24.50
2019-04-03T15:15:08.439Z,24.60
2019-04-03T15:17:45.969Z,24.40
2019-04-03T15:20:35.219Z,24.50
2019-04-03T15:23:14.086Z,25.10
2019-04-03T15:26:03.730Z,25.90
2019-04-03T15:28:40.530Z,26.00
2019-04-03T15:31:15.961Z,26.10
2019-04-03T15:33:54.271Z,26.20
2019-04-03T15:36:31.335Z,26.20
2019-04-03T15:39:19.329Z,26.20
2019-04-03T15:42:01.973Z,26.50
2019-04-03T15:44:39.519Z,26.60
2019-04-03T15:47:33.580Z,26.60
2019-04-03T15:49:59.877Z,26.30
2019-04-03T15:58:47.998Z,25.10
2019-04-03T16:01:25.934Z,25.00
2019-04-03T16:04:02.541Z,25.10
2019-04-03T16:06:40.659Z,25.10
2019-04-03T16:09:20.625Z,25.00
2019-04-03T16:11:56.531Z,24.60
2019-04-03T16:14:39.073Z,23.90
2019-04-03T16:17:16.774Z,23.50
2019-04-03T16:19:53.517Z,22.90
2019-04-03T16:22:30.222Z,22.50
2019-04-03T16:25:06.984Z,22.40
2019-04-03T16:27:43.138Z,22.40
2019-04-03T16:30:19.756Z,22.30
2019-04-03T16:33:02.344Z,21.90
2019-04-03T16:35:38.905Z,21.50
2019-04-03T16:38:15.140Z,20.90
2019-04-03T16:40:51.096Z,20.50
2019-04-03T16:43:26.510Z,20.20
2019-04-03T16:46:02.827Z,20.20
2019-04-03T16:48:39.866Z,19.70
2019-04-03T16:51:15.643Z,19.60
2019-04-03T16:53:51.825Z,19.50
2019-04-03T16:56:27.690Z,19.30
2019-04-03T16:59:03.064Z,19.20
2019-04-03T17:01:39.041Z,19.00
2019-04-03T17:04:23.792Z,18.80
2019-04-03T17:06:51.065Z,18.60
2019-04-03T17:09:32.828Z,18.50
2019-04-03T17:12:17.085Z,18.30
2019-04-03T17:15:00.523Z,18.10
2019-04-03T17:17:36.063Z,18.00
2019-04-03T17:20:11.883Z,17.80
2019-04-03T17:22:47.147Z,17.70
2019-04-03T17:25:26.972Z,17.50
2019-04-03T17:28:07.988Z,17.40
2019-04-03T17:30:38.420Z,17.30
2019-04-03T17:33:13.561Z,17.20
2019-04-03T17:35:50.845Z,17.10
2019-04-03T17:38:31.522Z,17.00
2019-04-03T17:41:09.354Z,16.90
2019-04-03T17:43:52.162Z,16.80
2019-04-03T17:46:27.119Z,16.70
2019-04-03T17:49:04.580Z,16.60
2019-04-03T17:51:40.835Z,16.60
2019-04-03T17:54:16.862Z,16.50
2019-04-03T17:56:53.007Z,16.50
2019-04-03T17:59:29.841Z,16.40
2019-04-03T18:02:05.894Z,16.40
2019-04-03T18:04:41.021Z,16.40
2019-04-03T18:07:18.259Z,16.40
2019-04-03T18:09:53.412Z,16.30
2019-04-03T18:12:28.788Z,16.30
2019-04-03T18:15:08.375Z,16.20
2019-04-03T18:17:43.520Z,16.20
2019-04-03T18:20:19.005Z,16.20
2019-04-03T18:22:54.148Z,16.10
2019-04-03T18:25:30.225Z,16.00
2019-04-03T18:28:06.315Z,16.00
2019-04-03T18:30:43.982Z,15.90
2019-04-03T18:33:19.173Z,15.90
2019-04-03T18:35:56.824Z,15.90
2019-04-03T18:38:33.966Z,15.80
2019-04-03T18:41:10.275Z,15.80
2019-04-03T18:43:46.622Z,15.70
2019-04-03T18:46:31.604Z,15.70
2019-04-03T18:49:01.169Z,15.70
2019-04-03T18:51:36.739Z,15.70
2019-04-03T18:54:12.834Z,15.70
2019-04-03T18:56:50.103Z,15.60
2019-04-03T18:59:27.529Z,15.60
2019-04-03T19:02:03.825Z,15.60
2019-04-03T19:04:42.343Z,15.60
2019-04-03T19:07:20.145Z,15.50
2019-04-03T19:10:06.452Z,15.50
2019-04-03T19:12:35.904Z,15.40
2019-04-03T19:15:11.066Z,15.40
2019-04-03T19:17:59.121Z,15.30
2019-04-03T19:20:24.925Z,15.30
2019-04-03T19:23:02.823Z,15.30
2019-04-03T19:25:38.615Z,15.20
2019-04-03T19:28:14.561Z,15.20
2019-04-03T19:30:50.484Z,15.20
2019-04-03T19:33:28.607Z,15.20
2019-04-03T19:36:04.145Z,15.20
2019-04-03T19:38:40.838Z,15.10
2019-04-03T19:41:17.188Z,15.10
2019-04-03T19:43:52.650Z,15.10
2019-04-03T19:46:27.806Z,15.10
2019-04-03T19:49:04.168Z,15.10
2019-04-03T19:51:40.272Z,15.10
2019-04-03T19:54:16.847Z,15.20
2019-04-03T19:56:52.785Z,15.20
2019-04-03T19:59:31.008Z,15.10
2019-04-03T20:02:05.925Z,15.00
2019-04-03T20:04:41.945Z,15.00
2019-04-03T20:07:17.187Z,14.90
2019-04-03T20:09:52.428Z,14.90
2019-04-03T20:12:27.618Z,14.90
2019-04-03T20:15:03.183Z,14.80
2019-04-03T20:17:38.649Z,14.80
2019-04-03T20:20:15.039Z,14.70
2019-04-03T20:22:51.543Z,14.60
2019-04-03T20:25:27.023Z,14.60
2019-04-03T20:28:02.163Z,14.50
2019-04-03T20:30:37.631Z,14.50
2019-04-03T20:33:12.731Z,14.50
2019-04-03T20:35:49.376Z,14.50
2019-04-03T20:38:27.152Z,14.50
2019-04-03T20:41:03.881Z,14.50
2019-04-03T20:43:42.557Z,14.50
2019-04-03T20:46:16.167Z,14.50
2019-04-03T20:48:51.533Z,14.60
2019-04-03T20:51:26.885Z,14.50
2019-04-03T20:54:02.234Z,14.60
2019-04-03T20:56:42.890Z,14.50
2019-04-03T20:59:18.000Z,14.50
2019-04-03T21:01:55.038Z,14.50
2019-04-03T21:04:30.310Z,14.40
2019-04-03T21:07:05.350Z,14.50
2019-04-03T21:09:40.393Z,14.50
2019-04-03T21:12:15.779Z,14.50
2019-04-03T21:14:51.863Z,14.40
2019-04-03T21:17:26.883Z,14.50
2019-04-03T21:20:02.866Z,14.40
2019-04-03T21:22:37.965Z,14.40
2019-04-03T21:25:13.565Z,14.40
2019-04-03T21:27:49.315Z,14.30
2019-04-03T21:30:25.768Z,14.30
2019-04-03T21:33:01.069Z,14.30
2019-04-03T21:35:36.106Z,14.20
2019-04-03T21:38:11.473Z,14.20
2019-04-03T21:40:47.565Z,14.20
2019-04-03T21:43:23.951Z,14.20
2019-04-03T21:46:00.309Z,14.20
2019-04-03T21:48:35.441Z,14.20
2019-04-03T21:51:11.469Z,14.10
2019-04-03T21:53:46.537Z,14.10
2019-04-03T21:56:25.125Z,14.10
2019-04-03T21:59:00.141Z,14.00
2019-04-03T22:01:40.152Z,13.90
2019-04-03T22:04:15.191Z,13.90
2019-04-03T22:06:50.241Z,13.80
2019-04-03T22:09:32.597Z,13.70
2019-04-03T22:12:07.957Z,13.80
2019-04-03T22:14:43.471Z,13.70
2019-04-03T22:17:22.026Z,13.60
2019-04-03T22:19:58.608Z,13.50
2019-04-03T22:22:34.704Z,13.50
2019-04-03T22:25:10.379Z,13.40
2019-04-03T22:27:48.303Z,13.30
2019-04-03T22:30:24.327Z,13.30
2019-04-03T22:32:59.446Z,13.30
2019-04-03T22:35:34.486Z,13.20
2019-04-03T22:38:09.801Z,13.20
2019-04-03T22:40:44.839Z,13.20
2019-04-03T22:43:20.148Z,13.10
2019-04-03T22:45:56.077Z,13.10
2019-04-03T22:48:31.113Z,13.10
2019-04-03T22:51:06.983Z,13.20
2019-04-03T22:53:44.486Z,13.30
2019-04-03T22:56:19.889Z,13.30
2019-04-03T22:58:55.264Z,13.30
2019-04-03T23:01:32.701Z,13.30
2019-04-03T23:04:08.952Z,13.30
2019-04-03T23:06:44.237Z,13.20
2019-04-03T23:09:19.321Z,13.20
2019-04-03T23:11:54.643Z,13.10
2019-04-03T23:14:29.673Z,13.10
2019-04-03T23:17:04.730Z,13.00
2019-04-03T23:19:40.730Z,13.00
2019-04-03T23:22:17.006Z,13.00
2019-04-03T23:24:52.037Z,13.00
2019-04-03T23:27:32.624Z,13.00
2019-04-03T23:30:10.061Z,12.90
2019-04-03T23:32:46.459Z,12.90
2019-04-03T23:35:21.744Z,12.90
2019-04-03T23:37:56.770Z,12.90
2019-04-03T23:40:34.452Z,12.90
2019-04-03T23:43:09.392Z,12.90
2019-04-03T23:45:44.600Z,12.90
2019-04-03T23:48:19.637Z,12.90
2019-04-03T23:50:55.628Z,12.80
2019-04-03T23:53:32.626Z,12.80
2019-04-03T23:56:07.952Z,12.70
2019-04-03T23:58:43.111Z,12.70
